Madison, Georgia
Current Conditions -  °F | °C
As of 1:15 PM on Sunday 25 Jan 2015 (Local Time) from K3J7 Reporting Station
Clear Clear  
Wind Chill: 57°   Ceiling: Unl
Heat Index: 57°   Visibility: 10mi
Dew Point: 34°   Wind: 8mph
Humidity: 41%   Direction: 170°S
Pressure: 29.85"   Gusts: NA
Location:  33.6°N, 83.47°W
Report Text: K3J7 251815Z AUTO 17007KT 10SM CLR 14/01 A2985 RMK AO2
Loading
Personal Weather Stations






























Interactive Weather Map New forecast layout! Learn more

10-Day Weather Forecast

Advertisements
Track Severe Weather on mobile